Weather at Esenboğa International Airport

Public forecast

Using degrees Celsius for public forecast. Weather courtesy of forecast.io.

Current aviation weather report (METAR) for Esenboğa International Airport

Retrieved 2021/01/25 05:20 UTC (30 minutes ago):

LTAC 250520Z 09003KT 360V170 3200 BR SCT040 BKN100 M01/M02 Q1016 NOSIG

Aviation forecast (TAF) for Esenboğa International Airport

Retrieved 2021-01-25 00:03 UTC (6 hours ago):

TAF TAF LTAC 242240Z 2500/2524 VRB02KT 4000 BR SCT040 BKN100 PROB30 TEMPO 2503/2507 1200 BCFG BECMG 2507/2509 9999 NSW TEMPO 2511/2515 17012KT -SHRA BKN030 BKN080 TEMPO 2516/2520 -SHRA BKN030 BKN080